METAR Data
IDs: Format: Raw Decoded Include TAF

Data at: 1216 UTC 17 Sep 2019

METAR for:PAAK (Atka Arpt, AK, US)
Text:PAAK 171156Z AUTO 23004KT 6SM -RA BR BKN018 OVC024 09/08 A2942 RMK AO2 RAB00E13B51 SLP964 6//// 7//// T00940083 10106 20094 58010 PNO $
Temperature: 9.4°C ( 49°F)
Dewpoint: 8.3°C ( 47°F) [RH = 93%]
Pressure (altimeter):29.42 inches Hg ( 996.4 mb) [Sea level pressure: 996.4 mb]
Winds:from the SW (230 degrees) at 5 MPH (4 knots; 2.1 m/s)
Visibility: 6 sm ( 10 km)
Ceiling:1800 feet AGL
Clouds: broken clouds at 1800 feet AGL, overcast cloud deck at 2400 feet AGL
Weather:-RA BR (light rain, mist)
QC Flag:automated observation with no human augmentation; SOME DATA ABOVE MAY BE INACCURATE!!!"$" is an indication the sensor requires maintenance.
Text:PAAK 171116Z AUTO 17004KT 10SM SCT008 BKN021 OVC028 09/08 A2942 RMK AO2 RAB00E13 PNO $
Temperature: 9.0°C ( 48°F)
Dewpoint: 8.0°C ( 46°F) [RH = 93%]
Pressure (altimeter):29.42 inches Hg ( 996.4 mb)
Winds:from the S (170 degrees) at 5 MPH (4 knots; 2.1 m/s)
Visibility:10 or more sm (16+ km)
Ceiling:2100 feet AGL
Clouds: scattered clouds at 800 feet AGL, broken clouds at 2100 feet AGL, overcast cloud deck at 2800 feet AGL
QC Flag:automated observation with no human augmentation; SOME DATA ABOVE MAY BE INACCURATE!!!"$" is an indication the sensor requires maintenance.
Text:PAAK 171103Z AUTO 17003KT 3SM -RA BR BKN008 BKN011 OVC023 09/08 A2942 RMK AO2 RAB00 CIG 005V009 PNO $
Temperature: 9.0°C ( 48°F)
Dewpoint: 8.0°C ( 46°F) [RH = 93%]
Pressure (altimeter):29.42 inches Hg ( 996.4 mb)
Winds:from the S (170 degrees) at 3 MPH (3 knots; 1.5 m/s)
Visibility: 3 sm ( 5 km)
Ceiling:800 feet AGL
Clouds: broken clouds at 800 feet AGL, broken clouds at 1100 feet AGL, overcast cloud deck at 2300 feet AGL
Weather:-RA BR (light rain, mist)
QC Flag:automated observation with no human augmentation; SOME DATA ABOVE MAY BE INACCURATE!!!"$" is an indication the sensor requires maintenance.
Text:PAAK 171056Z AUTO 13003KT 4SM BR OVC010 09/08 A2943 RMK AO2 CIG 006V012 SLP966 T00940083 PNO $
Temperature: 9.4°C ( 49°F)
Dewpoint: 8.3°C ( 47°F) [RH = 93%]
Pressure (altimeter):29.43 inches Hg ( 996.7 mb) [Sea level pressure: 996.6 mb]
Winds:from the SE (130 degrees) at 3 MPH (3 knots; 1.5 m/s)
Visibility: 4 sm ( 6 km)
Ceiling:1000 feet AGL
Clouds: overcast cloud deck at 1000 feet AGL
Weather:BR (mist)
QC Flag:automated observation with no human augmentation; SOME DATA ABOVE MAY BE INACCURATE!!!"$" is an indication the sensor requires maintenance.
Text:PAAK 171027Z AUTO 22003KT 6SM BR BKN012 OVC024 10/08 A2944 RMK AO2 PNO $
Temperature: 10.0°C ( 50°F)
Dewpoint: 8.0°C ( 46°F) [RH = 87%]
Pressure (altimeter):29.44 inches Hg ( 997.0 mb)
Winds:from the SW (220 degrees) at 3 MPH (3 knots; 1.5 m/s)
Visibility: 6 sm ( 10 km)
Ceiling:1200 feet AGL
Clouds: broken clouds at 1200 feet AGL, overcast cloud deck at 2400 feet AGL
Weather:BR (mist)
QC Flag:automated observation with no human augmentation; SOME DATA ABOVE MAY BE INACCURATE!!!"$" is an indication the sensor requires maintenance.
Text:PAAK 170856Z AUTO 22006KT 10SM OVC023 10/08 A2945 RMK AO2 SLP974 6//// T01000078 401330094 57005 PNO $
Temperature: 10.0°C ( 50°F)
Dewpoint: 7.8°C ( 46°F) [RH = 86%]
Pressure (altimeter):29.45 inches Hg ( 997.4 mb) [Sea level pressure: 997.4 mb]
Winds:from the SW (220 degrees) at 7 MPH (6 knots; 3.1 m/s)
Visibility:10 or more sm (16+ km)
Ceiling:2300 feet AGL
Clouds: overcast cloud deck at 2300 feet AGL
QC Flag:automated observation with no human augmentation; SOME DATA ABOVE MAY BE INACCURATE!!!"$" is an indication the sensor requires maintenance.
Text:PAAK 170821Z AUTO 22008KT 10SM FEW012 BKN022 OVC027 09/08 A2946 RMK AO2 PNO $
Temperature: 9.0°C ( 48°F)
Dewpoint: 8.0°C ( 46°F) [RH = 93%]
Pressure (altimeter):29.46 inches Hg ( 997.7 mb)
Winds:from the SW (220 degrees) at 9 MPH (8 knots; 4.1 m/s)
Visibility:10 or more sm (16+ km)
Ceiling:2200 feet AGL
Clouds: few clouds at 1200 feet AGL, broken clouds at 2200 feet AGL, overcast cloud deck at 2700 feet AGL
QC Flag:automated observation with no human augmentation; SOME DATA ABOVE MAY BE INACCURATE!!!"$" is an indication the sensor requires maintenance.
Text:PAAK 170812Z AUTO 21008KT 8SM BKN012 OVC020 09/08 A2946 RMK AO2 PNO $
Temperature: 9.0°C ( 48°F)
Dewpoint: 8.0°C ( 46°F) [RH = 93%]
Pressure (altimeter):29.46 inches Hg ( 997.7 mb)
Winds:from the SSW (210 degrees) at 9 MPH (8 knots; 4.1 m/s)
Visibility: 8 sm ( 13 km)
Ceiling:1200 feet AGL
Clouds: broken clouds at 1200 feet AGL, overcast cloud deck at 2000 feet AGL
QC Flag:automated observation with no human augmentation; SOME DATA ABOVE MAY BE INACCURATE!!!"$" is an indication the sensor requires maintenance.
Text:PAAK 170756Z AUTO 21010KT 10SM BKN015 OVC022 10/08 A2945 RMK AO2 RAB01E16 SLP975 T01000078 PNO $
Temperature: 10.0°C ( 50°F)
Dewpoint: 7.8°C ( 46°F) [RH = 86%]
Pressure (altimeter):29.45 inches Hg ( 997.4 mb) [Sea level pressure: 997.5 mb]
Winds:from the SSW (210 degrees) at 12 MPH (10 knots; 5.1 m/s)
Visibility:10 or more sm (16+ km)
Ceiling:1500 feet AGL
Clouds: broken clouds at 1500 feet AGL, overcast cloud deck at 2200 feet AGL
QC Flag:automated observation with no human augmentation; SOME DATA ABOVE MAY BE INACCURATE!!!"$" is an indication the sensor requires maintenance.
Text:PAAK 170656Z AUTO 19004KT 9SM BKN016 OVC022 10/08 A2946 RMK AO2 RAE21 SLP979 T01000083 PNO $
Temperature: 10.0°C ( 50°F)
Dewpoint: 8.3°C ( 47°F) [RH = 89%]
Pressure (altimeter):29.46 inches Hg ( 997.7 mb) [Sea level pressure: 997.9 mb]
Winds:from the S (190 degrees) at 5 MPH (4 knots; 2.1 m/s)
Visibility: 9 sm ( 14 km)
Ceiling:1600 feet AGL
Clouds: broken clouds at 1600 feet AGL, overcast cloud deck at 2200 feet AGL
QC Flag:automated observation with no human augmentation; SOME DATA ABOVE MAY BE INACCURATE!!!"$" is an indication the sensor requires maintenance.
Text:PAAK 170653Z AUTO 22005KT 10SM BKN016 OVC022 10/08 A2947 RMK AO2 RAE21 PNO $
Temperature: 10.0°C ( 50°F)
Dewpoint: 8.0°C ( 46°F) [RH = 87%]
Pressure (altimeter):29.47 inches Hg ( 998.1 mb)
Winds:from the SW (220 degrees) at 6 MPH (5 knots; 2.6 m/s)
Visibility:10 or more sm (16+ km)
Ceiling:1600 feet AGL
Clouds: broken clouds at 1600 feet AGL, overcast cloud deck at 2200 feet AGL
QC Flag:automated observation with no human augmentation; SOME DATA ABOVE MAY BE INACCURATE!!!"$" is an indication the sensor requires maintenance.

TAF for:PAAK (Atka Arpt, AK, US)
Text:No data found